Time;durP1;ratioP1;P1;durP2;ratioP2;P2;SDS_P1;SDS_P2;PMS_P1;PMS_P2;Temp;Humidity;BMP_temperature;BMP_pressure;BME280_temperature;BME280_humidity;BME280_pressure;Samples;Min_cycle;Max_cycle;Signal;HPM_P1;HPM_P2
2023/05/01 00:00:27;;;;;;;74.38;29.77;;;;;;;;;;6291337;28;20348;-53
2023/05/01 00:03:47;;;;;;;71.70;28.20;;;;;;;;;;6290448;28;20891;-56
2023/05/01 00:06:47;;;;;;;66.03;25.88;;;;;;;;;;6289174;28;20148;-52
2023/05/01 00:09:48;;;;;;;56.35;23.30;;;;;;;;;;6290795;28;20040;-52
2023/05/01 00:12:48;;;;;;;42.80;18.77;;;;;;;;;;6290858;28;20033;-56
2023/05/01 00:15:50;;;;;;;50.42;20.52;;;;;;;;;;6290059;28;20101;-54
2023/05/01 00:18:50;;;;;;;49.60;21.13;;;;;;;;;;6290988;28;20036;-54
2023/05/01 00:21:51;;;;;;;51.13;21.95;;;;;;;;;;6290871;28;20041;-51
2023/05/01 00:24:52;;;;;;;57.83;23.73;;;;;;;;;;6289439;28;20487;-57
2023/05/01 00:27:53;;;;;;;68.32;26.67;;;;;;;;;;6290863;28;20071;-61
2023/05/01 00:30:53;;;;;;;61.70;26.13;;;;;;;;;;6290627;28;20503;-53
2023/05/01 00:33:55;;;;;;;54.00;25.05;;;;;;;;;;6289747;28;21172;-50
2023/05/01 00:36:55;;;;;;;60.17;24.77;;;;;;;;;;6290153;28;20048;-51
2023/05/01 00:39:56;;;;;;;63.65;25.70;;;;;;;;;;6290686;28;20052;-53
2023/05/01 00:42:56;;;;;;;60.22;25.95;;;;;;;;;;6290379;28;20052;-57
2023/05/01 00:45:57;;;;;;;74.93;27.52;;;;;;;;;;6289517;28;20044;-56
2023/05/01 00:48:58;;;;;;;57.75;23.58;;;;;;;;;;6290608;28;20052;-51
2023/05/01 00:51:59;;;;;;;52.15;23.50;;;;;;;;;;6290381;28;20163;-54
2023/05/01 00:54:59;;;;;;;62.92;25.33;;;;;;;;;;6289118;28;20055;-63
2023/05/01 00:58:01;;;;;;;59.78;24.23;;;;;;;;;;6290581;28;20143;-51
2023/05/01 01:01:01;;;;;;;57.33;24.67;;;;;;;;;;6290494;28;20072;-51
2023/05/01 01:04:02;;;;;;;66.68;26.08;;;;;;;;;;6289269;28;20913;-51
2023/05/01 01:07:20;;;;;;;66.88;25.15;;;;;;;;;;6289895;28;20052;-51
2023/05/01 01:10:42;;;;;;;74.22;28.70;;;;;;;;;;6295242;28;20052;-54
2023/05/01 01:13:55;;;;;;;80.20;33.63;;;;;;;;;;6295327;28;20041;-51
2023/05/01 01:17:07;;;;;;;78.20;30.83;;;;;;;;;;6293950;28;20040;-54
2023/05/01 01:20:20;;;;;;;72.20;30.92;;;;;;;;;;6294646;28;20066;-51
2023/05/01 01:23:40;;;;;;;75.18;29.38;;;;;;;;;;6295115;28;20127;-51
2023/05/01 01:27:02;;;;;;;69.55;30.35;;;;;;;;;;6294917;28;20106;-51
2023/05/01 01:30:29;;;;;;;76.15;31.70;;;;;;;;;;6293921;28;20522;-53
2023/05/01 01:34:18;;;;;;;71.35;28.08;;;;;;;;;;6293777;28;20040;-54
2023/05/01 01:37:27;;;;;;;68.63;28.13;;;;;;;;;;6293892;28;20051;-57
2023/05/01 01:40:54;;;;;;;65.70;26.35;;;;;;;;;;6294476;28;20044;-52
2023/05/01 01:44:04;;;;;;;66.50;27.45;;;;;;;;;;6294404;28;20135;-53
2023/05/01 01:47:07;;;;;;;68.60;27.98;;;;;;;;;;6292984;28;20052;-52
2023/05/01 01:50:10;;;;;;;66.65;27.60;;;;;;;;;;6294105;28;20419;-52
2023/05/01 01:53:16;;;;;;;78.90;28.52;;;;;;;;;;6294268;28;20056;-53
2023/05/01 01:56:20;;;;;;;68.15;28.80;;;;;;;;;;6293820;28;20097;-54
2023/05/01 01:59:22;;;;;;;70.53;27.98;;;;;;;;;;6293013;28;20101;-61
2023/05/01 02:02:23;;;;;;;;;;;;;;;;;;6294781;28;20499;-52
2023/05/01 02:05:25;;;;;;;72.82;27.98;;;;;;;;;;6293881;28;19927;-62
2023/05/01 02:08:30;;;;;;;70.45;29.63;;;;;;;;;;6292571;28;20045;-56
2023/05/01 02:11:31;;;;;;;72.05;27.85;;;;;;;;;;6293746;28;20047;-60
2023/05/01 02:14:32;;;;;;;73.35;29.08;;;;;;;;;;6293834;28;20045;-51
2023/05/01 02:17:35;;;;;;;63.30;25.27;;;;;;;;;;6292975;28;20522;-51
2023/05/01 02:20:36;;;;;;;62.22;25.35;;;;;;;;;;6292835;28;20046;-50
2023/05/01 02:23:37;;;;;;;67.32;25.48;;;;;;;;;;6293815;28;20048;-50
2023/05/01 02:26:48;;;;;;;59.67;24.77;;;;;;;;;;6293496;28;20045;-52
2023/05/01 02:29:51;;;;;;;63.15;23.95;;;;;;;;;;6292358;28;20506;-51
2023/05/01 02:32:51;;;;;;;60.70;23.73;;;;;;;;;;6293429;28;20040;-50
2023/05/01 02:35:52;;;;;;;67.65;25.63;;;;;;;;;;6293342;28;20068;-57
2023/05/01 02:38:53;;;;;;;64.85;25.63;;;;;;;;;;6292115;28;20131;-53
2023/05/01 02:41:57;;;;;;;62.25;23.20;;;;;;;;;;6293105;28;20522;-63
2023/05/01 02:45:04;;;;;;;60.80;22.77;;;;;;;;;;6292962;28;20510;-51
2023/05/01 02:48:06;;;;;;;77.35;27.38;;;;;;;;;;6292806;28;20047;-52
2023/05/01 02:51:08;;;;;;;66.82;23.70;;;;;;;;;;6291998;28;20047;-57
2023/05/01 02:54:08;;;;;;;61.40;23.65;;;;;;;;;;6293010;28;20066;-61
2023/05/01 02:57:10;;;;;;;62.15;24.63;;;;;;;;;;6292854;28;20460;-61
2023/05/01 03:00:12;;;;;;;63.30;22.00;;;;;;;;;;6291546;28;20499;-55
2023/05/01 03:03:13;;;;;;;67.05;24.27;;;;;;;;;;6292764;28;20048;-53
2023/05/01 03:06:14;;;;;;;59.00;22.27;;;;;;;;;;6292516;28;20098;-51
2023/05/01 03:09:15;;;;;;;56.67;20.33;;;;;;;;;;6291591;28;20036;-60
2023/05/01 03:12:15;;;;;;;59.45;21.45;;;;;;;;;;6292292;28;20036;-55
2023/05/01 03:15:17;;;;;;;54.85;21.08;;;;;;;;;;6292355;28;20494;-55
2023/05/01 03:18:17;;;;;;;58.90;20.70;;;;;;;;;;6291992;28;20064;-53
2023/05/01 03:21:18;;;;;;;54.28;20.95;;;;;;;;;;6291279;28;20496;-50
2023/05/01 03:24:19;;;;;;;60.88;20.88;;;;;;;;;;6292173;28;20376;-51
2023/05/01 03:27:19;;;;;;;60.22;20.30;;;;;;;;;;6291916;28;20079;-49
2023/05/01 03:30:20;;;;;;;62.85;21.25;;;;;;;;;;6290014;28;20411;-54
2023/05/01 03:33:20;;;;;;;54.45;19.85;;;;;;;;;;6291715;28;20040;-54
2023/05/01 03:36:21;;;;;;;64.65;22.10;;;;;;;;;;6291996;28;20044;-50
2023/05/01 03:39:23;;;;;;;60.03;21.58;;;;;;;;;;6290662;28;20126;-51
2023/05/01 03:42:23;;;;;;;59.10;21.25;;;;;;;;;;6291583;28;20043;-48
2023/05/01 03:45:24;;;;;;;60.88;21.48;;;;;;;;;;6291482;28;20060;-52
2023/05/01 03:48:24;;;;;;;60.78;20.98;;;;;;;;;;6291108;28;20045;-52
2023/05/01 03:51:26;;;;;;;56.25;21.92;;;;;;;;;;6290593;28;20039;-50
2023/05/01 03:54:26;;;;;;;60.53;21.60;;;;;;;;;;6291227;28;20385;-56
2023/05/01 03:57:27;;;;;;;54.70;21.10;;;;;;;;;;6291383;28;20047;-52
2023/05/01 04:00:27;;;;;;;68.03;21.67;;;;;;;;;;6289937;28;20040;-51
2023/05/01 04:03:28;;;;;;;63.03;22.92;;;;;;;;;;6291317;28;20400;-51
2023/05/01 04:06:28;;;;;;;62.33;22.65;;;;;;;;;;6290934;28;20049;-62
2023/05/01 04:09:29;;;;;;;65.57;21.83;;;;;;;;;;6289810;28;20565;-54
2023/05/01 04:12:30;;;;;;;62.78;22.85;;;;;;;;;;6290950;28;20404;-53
2023/05/01 04:15:31;;;;;;;65.13;22.30;;;;;;;;;;6290885;28;20044;-50
2023/05/01 04:18:31;;;;;;;63.47;22.83;;;;;;;;;;6290417;28;20056;-52
2023/05/01 04:21:32;;;;;;;63.28;21.35;;;;;;;;;;6290031;28;20041;-54
2023/05/01 04:24:33;;;;;;;56.38;21.83;;;;;;;;;;6290712;28;20044;-53
2023/05/01 04:27:33;;;;;;;61.58;20.38;;;;;;;;;;6290819;28;20086;-50
2023/05/01 04:30:35;;;;;;;56.40;20.38;;;;;;;;;;6289518;28;20055;-49
2023/05/01 04:33:36;;;;;;;54.15;21.15;;;;;;;;;;6290873;28;20051;-52
2023/05/01 04:36:36;;;;;;;60.78;21.00;;;;;;;;;;6290715;28;20048;-50
2023/05/01 04:39:37;;;;;;;66.78;22.17;;;;;;;;;;6289293;28;20048;-51
2023/05/01 04:42:37;;;;;;;54.30;19.95;;;;;;;;;;6290458;28;20055;-48
2023/05/01 04:45:38;;;;;;;54.15;19.65;;;;;;;;;;6290495;28;20427;-50
2023/05/01 04:48:38;;;;;;;64.65;19.95;;;;;;;;;;6289722;28;20045;-68
2023/05/01 04:51:39;;;;;;;55.00;19.65;;;;;;;;;;6289966;28;20052;-53
2023/05/01 04:54:39;;;;;;;52.88;20.30;;;;;;;;;;6290443;28;20538;-51
2023/05/01 04:57:40;;;;;;;60.53;20.55;;;;;;;;;;6290246;28;20037;-51
2023/05/01 05:00:41;;;;;;;51.15;18.23;;;;;;;;;;6289309;28;20491;-52
2023/05/01 05:03:42;;;;;;;56.15;19.77;;;;;;;;;;6290302;28;20052;-53
2023/05/01 05:06:42;;;;;;;49.60;17.67;;;;;;;;;;6290233;28;20048;-65
2023/05/01 05:09:43;;;;;;;39.70;15.32;;;;;;;;;;6288997;28;20075;-53
2023/05/01 05:12:43;;;;;;;40.63;13.75;;;;;;;;;;6290159;28;20054;-49
2023/05/01 05:15:44;;;;;;;39.92;14.40;;;;;;;;;;6290202;28;20050;-60
2023/05/01 05:18:44;;;;;;;35.72;12.98;;;;;;;;;;6289257;28;20052;-53
2023/05/01 05:21:45;;;;;;;39.45;13.82;;;;;;;;;;6289871;28;20052;-53
2023/05/01 05:24:45;;;;;;;28.20;10.48;;;;;;;;;;6289952;28;20057;-51
2023/05/01 05:27:46;;;;;;;34.47;13.15;;;;;;;;;;6289875;28;20041;-51
2023/05/01 05:30:47;;;;;;;25.90;9.15;;;;;;;;;;6288861;28;20040;-51
2023/05/01 05:33:47;;;;;;;29.17;10.10;;;;;;;;;;6290261;28;20086;-51
2023/05/01 05:36:48;;;;;;;29.95;9.85;;;;;;;;;;6289837;28;20040;-51
2023/05/01 05:39:49;;;;;;;30.65;10.43;;;;;;;;;;6288618;28;20048;-53
2023/05/01 05:42:49;;;;;;;28.00;10.20;;;;;;;;;;6289881;28;20048;-60
2023/05/01 05:45:50;;;;;;;30.98;11.63;;;;;;;;;;6289609;28;20057;-51
2023/05/01 05:48:51;;;;;;;29.83;12.30;;;;;;;;;;6288767;28;20049;-52
2023/05/01 05:51:51;;;;;;;30.15;10.52;;;;;;;;;;6289405;28;20401;-54
2023/05/01 05:54:52;;;;;;;30.73;12.13;;;;;;;;;;6292260;28;20056;-53
2023/05/01 05:57:52;;;;;;;28.95;10.82;;;;;;;;;;6293727;28;20051;-56
2023/05/01 06:00:54;;;;;;;37.67;12.73;;;;;;;;;;6293295;28;20460;-53
2023/05/01 06:03:55;;;;;;;37.75;13.63;;;;;;;;;;6294001;28;20141;-51
2023/05/01 06:06:56;;;;;;;32.63;12.18;;;;;;;;;;6293750;28;20053;-51
2023/05/01 06:10:03;;;;;;;36.40;12.52;;;;;;;;;;6292574;28;20036;-51
2023/05/01 06:13:03;;;;;;;35.67;13.25;;;;;;;;;;6294067;28;20044;-52
2023/05/01 06:16:06;;;;;;;35.20;12.60;;;;;;;;;;6293706;28;20141;-55
2023/05/01 06:19:09;;;;;;;41.92;15.32;;;;;;;;;;6292750;28;20040;-51
2023/05/01 06:22:10;;;;;;;35.72;13.13;;;;;;;;;;6293654;28;20040;-53
2023/05/01 06:25:10;;;;;;;33.55;11.48;;;;;;;;;;6293402;28;20048;-54
2023/05/01 06:28:11;;;;;;;27.95;12.00;;;;;;;;;;6293431;28;20041;-51
2023/05/01 06:31:11;;;;;;;24.48;8.90;;;;;;;;;;6292633;28;20052;-53
2023/05/01 06:34:13;;;;;;;33.78;9.77;;;;;;;;;;6293384;28;20048;-54
2023/05/01 06:37:14;;;;;;;43.10;12.45;;;;;;;;;;6293293;28;20416;-50
2023/05/01 06:40:14;;;;;;;34.20;11.32;;;;;;;;;;6291825;28;20433;-51
2023/05/01 06:43:15;;;;;;;22.90;8.20;;;;;;;;;;6293139;28;20060;-52
2023/05/01 06:46:16;;;;;;;26.40;8.32;;;;;;;;;;6293004;28;20490;-51
2023/05/01 06:49:16;;;;;;;21.10;9.13;;;;;;;;;;6291774;28;20510;-50
2023/05/01 06:52:17;;;;;;;23.08;8.82;;;;;;;;;;6292679;28;20040;-56
2023/05/01 06:55:17;;;;;;;23.00;7.97;;;;;;;;;;6292874;28;20040;-55
2023/05/01 06:58:18;;;;;;;28.30;8.10;;;;;;;;;;6292360;28;20036;-49
2023/05/01 07:01:18;;;;;;;22.17;7.93;;;;;;;;;;6291882;28;20044;-51
2023/05/01 07:04:19;;;;;;;22.88;8.80;;;;;;;;;;6292431;28;20499;-61
2023/05/01 07:07:19;;;;;;;27.10;10.52;;;;;;;;;;6291598;28;20060;-53
2023/05/01 07:10:20;;;;;;;25.25;9.50;;;;;;;;;;6291394;28;20126;-60
2023/05/01 07:13:21;;;;;;;21.58;8.07;;;;;;;;;;6292436;28;20044;-54
2023/05/01 07:16:21;;;;;;;20.48;8.13;;;;;;;;;;6292440;28;20061;-53
2023/05/01 07:19:22;;;;;;;21.92;8.68;;;;;;;;;;6290945;28;20041;-52
2023/05/01 07:22:23;;;;;;;25.92;8.40;;;;;;;;;;6292135;28;20495;-56
2023/05/01 07:25:23;;;;;;;68.97;10.82;;;;;;;;;;6291918;28;20417;-60
2023/05/01 07:28:24;;;;;;;21.15;7.75;;;;;;;;;;6291406;28;20389;-51
2023/05/01 07:31:25;;;;;;;22.45;6.93;;;;;;;;;;6291322;28;20052;-51
2023/05/01 07:34:25;;;;;;;16.98;6.88;;;;;;;;;;6291769;28;20135;-52
2023/05/01 07:37:26;;;;;;;21.63;7.45;;;;;;;;;;6291766;28;20483;-52
2023/05/01 07:40:26;;;;;;;18.40;5.60;;;;;;;;;;6290578;28;20080;-58
2023/05/01 07:43:27;;;;;;;15.75;5.30;;;;;;;;;;6291829;28;20037;-57
2023/05/01 07:46:28;;;;;;;18.08;6.25;;;;;;;;;;6291722;28;20089;-53
2023/05/01 07:49:33;;;;;;;15.80;5.88;;;;;;;;;;6290173;28;20495;-53
2023/05/01 07:52:34;;;;;;;14.98;6.18;;;;;;;;;;6291507;28;20049;-50
2023/05/01 07:55:34;;;;;;;14.77;5.18;;;;;;;;;;6291249;28;20060;-54
2023/05/01 07:58:36;;;;;;;23.92;5.75;;;;;;;;;;6290647;28;20527;-55
2023/05/01 08:01:36;;;;;;;16.45;6.40;;;;;;;;;;6290609;28;20048;-51
2023/05/01 08:04:37;;;;;;;20.75;6.10;;;;;;;;;;6291346;28;20399;-57
2023/05/01 08:07:37;;;;;;;14.65;5.60;;;;;;;;;;6290803;28;20044;-53
2023/05/01 08:10:38;;;;;;;13.88;5.28;;;;;;;;;;6289970;28;20049;-51
2023/05/01 08:13:39;;;;;;;18.00;6.00;;;;;;;;;;6291000;28;20561;-60
2023/05/01 08:16:40;;;;;;;19.45;5.38;;;;;;;;;;6290026;28;20131;-56
2023/05/01 08:19:40;;;;;;;15.18;5.38;;;;;;;;;;6289710;28;20041;-52
2023/05/01 08:22:41;;;;;;;13.88;5.05;;;;;;;;;;6290842;28;20036;-54
2023/05/01 08:25:41;;;;;;;17.58;6.22;;;;;;;;;;6290788;28;20052;-50
2023/05/01 08:28:42;;;;;;;19.48;5.80;;;;;;;;;;6289949;28;20530;-67
2023/05/01 08:31:42;;;;;;;17.67;5.82;;;;;;;;;;6290543;28;20045;-54
2023/05/01 08:34:43;;;;;;;14.75;6.22;;;;;;;;;;6290735;28;20048;-55
2023/05/01 08:37:43;;;;;;;17.50;6.82;;;;;;;;;;6290490;28;20052;-59
2023/05/01 08:40:52;;;;;;;21.75;6.07;;;;;;;;;;6289657;28;20533;-54
2023/05/01 08:43:54;;;;;;;22.20;5.72;;;;;;;;;;6290656;28;20486;-54
2023/05/01 08:47:15;;;;;;;15.15;5.60;;;;;;;;;;6290591;28;20053;-54
2023/05/01 08:50:16;;;;;;;12.40;5.55;;;;;;;;;;6289618;28;20040;-51
2023/05/01 08:53:17;;;;;;;19.97;6.63;;;;;;;;;;6290209;28;20049;-53
2023/05/01 08:56:22;;;;;;;15.00;5.65;;;;;;;;;;6290472;28;20307;-54
2023/05/01 08:59:24;;;;;;;15.70;5.43;;;;;;;;;;6290588;28;20041;-60
2023/05/01 09:02:26;;;;;;;19.80;5.93;;;;;;;;;;6289335;28;20052;-53
2023/05/01 09:05:32;;;;;;;16.92;5.93;;;;;;;;;;6290167;28;20044;-51
2023/05/01 09:08:32;;;;;;;22.30;6.10;;;;;;;;;;6290273;28;20072;-52
2023/05/01 09:11:33;;;;;;;13.85;4.65;;;;;;;;;;6289304;28;20089;-54
2023/05/01 09:14:34;;;;;;;13.82;5.38;;;;;;;;;;6290055;28;20070;-53
2023/05/01 09:17:35;;;;;;;15.20;5.20;;;;;;;;;;6290312;28;20040;-51
2023/05/01 09:20:36;;;;;;;23.08;6.18;;;;;;;;;;6289417;28;20522;-53
2023/05/01 09:23:37;;;;;;;16.43;6.93;;;;;;;;;;6289527;28;20091;-51
2023/05/01 09:26:41;;;;;;;16.90;7.53;;;;;;;;;;6289969;28;20041;-51
2023/05/01 09:29:46;;;;;;;17.58;6.72;;;;;;;;;;6292535;28;20487;-50
2023/05/01 09:33:06;;;;;;;17.77;7.45;;;;;;;;;;6293617;28;20060;-53
2023/05/01 09:36:07;;;;;;;18.10;6.25;;;;;;;;;;6294694;28;20163;-55
2023/05/01 09:39:07;;;;;;;16.77;6.07;;;;;;;;;;6294570;28;20046;-54
2023/05/01 09:42:08;;;;;;;17.10;6.25;;;;;;;;;;6293882;28;20074;-53
2023/05/01 09:45:13;;;;;;;17.45;6.20;;;;;;;;;;6293935;28;20078;-54
2023/05/01 09:48:14;;;;;;;16.20;6.88;;;;;;;;;;6294598;28;20055;-54
2023/05/01 09:51:21;;;;;;;18.20;7.63;;;;;;;;;;6294395;28;20136;-53
2023/05/01 09:54:22;;;;;;;18.42;5.65;;;;;;;;;;6293002;28;20190;-57
2023/05/01 09:57:37;;;;;;;15.85;6.78;;;;;;;;;;6294499;28;20576;-52
2023/05/01 10:00:48;;;;;;;37.58;17.15;;;;;;;;;;6294281;28;20076;-52
2023/05/01 10:03:53;;;;;;;20.35;7.30;;;;;;;;;;6293642;28;20118;-56
2023/05/01 10:06:54;;;;;;;18.70;6.45;;;;;;;;;;6293161;28;20041;-60
2023/05/01 10:09:55;;;;;;;16.70;6.97;;;;;;;;;;6294013;28;20070;-53
2023/05/01 10:12:55;;;;;;;18.38;7.35;;;;;;;;;;6293883;28;20521;-52
2023/05/01 10:15:56;;;;;;;15.05;5.60;;;;;;;;;;6292614;28;20139;-51
2023/05/01 10:18:58;;;;;;;16.65;6.65;;;;;;;;;;6293973;28;20047;-54
2023/05/01 10:21:59;;;;;;;16.75;5.20;;;;;;;;;;6293770;28;20124;-56
2023/05/01 10:25:00;;;;;;;18.23;8.75;;;;;;;;;;6292430;28;20067;-59
2023/05/01 10:28:03;;;;;;;10.90;4.50;;;;;;;;;;6293078;28;20055;-54
2023/05/01 10:31:05;;;;;;;16.67;5.97;;;;;;;;;;6293182;28;20400;-63
2023/05/01 10:34:05;;;;;;;17.63;6.05;;;;;;;;;;6293061;28;20063;-52
2023/05/01 10:37:23;;;;;;;14.98;4.95;;;;;;;;;;6292726;28;20044;-66
2023/05/01 10:40:39;;;;;;;12.68;5.32;;;;;;;;;;6293240;28;20041;-65
2023/05/01 10:43:40;;;;;;;14.52;4.90;;;;;;;;;;6293308;28;20049;-52
2023/05/01 10:46:40;;;;;;;11.95;4.43;;;;;;;;;;6292153;28;20046;-56
2023/05/01 10:50:04;;;;;;;10.38;4.00;;;;;;;;;;6292816;28;20055;-59
2023/05/01 10:53:11;;;;;;;17.50;4.65;;;;;;;;;;6293113;28;20040;-53
2023/05/01 10:56:22;;;;;;;25.65;9.55;;;;;;;;;;6292855;28;20048;-53
2023/05/01 10:59:24;;;;;;;17.45;6.25;;;;;;;;;;6291672;28;20055;-67
2023/05/01 11:02:25;;;;;;;14.90;4.63;;;;;;;;;;6292959;28;20513;-51
2023/05/01 11:06:04;;;;;;;15.50;6.50;;;;;;;;;;6292598;28;20163;-58
2023/05/01 11:09:35;;;;;;;446.55;116.97;;;;;;;;;;6292557;28;20048;-55
2023/05/01 11:12:56;;;;;;;12.70;4.53;;;;;;;;;;6291292;28;20503;-51
2023/05/01 11:15:56;;;;;;;37.90;9.70;;;;;;;;;;6291342;28;20041;-54
2023/05/01 11:18:57;;;;;;;32.72;11.25;;;;;;;;;;6292258;28;20080;-56
2023/05/01 11:21:59;;;;;;;13.98;5.88;;;;;;;;;;6292302;28;20410;-54
2023/05/01 11:25:00;;;;;;;12.57;4.40;;;;;;;;;;6290982;28;20136;-60
2023/05/01 11:28:03;;;;;;;9.88;4.22;;;;;;;;;;6292433;28;20037;-52
2023/05/01 11:31:03;;;;;;;17.92;8.40;;;;;;;;;;6291938;28;20147;-55
2023/05/01 11:34:07;;;;;;;15.82;6.82;;;;;;;;;;6290877;28;20056;-54
2023/05/01 11:37:08;;;;;;;13.80;5.13;;;;;;;;;;6291772;28;20523;-54
2023/05/01 11:40:22;;;;;;;12.13;5.28;;;;;;;;;;6291937;28;20117;-55
2023/05/01 11:43:22;;;;;;;16.00;5.93;;;;;;;;;;6290234;28;20072;-54
2023/05/01 11:46:28;;;;;;;14.65;5.65;;;;;;;;;;6290583;28;21058;-53
2023/05/01 11:49:29;;;;;;;14.40;5.20;;;;;;;;;;6291961;28;20044;-56
2023/05/01 11:52:40;;;;;;;13.85;6.15;;;;;;;;;;6291276;28;20039;-54
2023/05/01 11:55:41;;;;;;;16.70;5.60;;;;;;;;;;6290152;28;20446;-64
2023/05/01 11:58:42;;;;;;;12.18;5.18;;;;;;;;;;6291255;28;20182;-63
2023/05/01 12:01:44;;;;;;;15.43;6.07;;;;;;;;;;6291482;28;20419;-53
2023/05/01 12:04:45;;;;;;;12.10;5.07;;;;;;;;;;6290710;28;20048;-56
2023/05/01 12:07:46;;;;;;;11.47;5.50;;;;;;;;;;6289758;28;20496;-54
2023/05/01 12:10:51;;;;;;;13.70;5.75;;;;;;;;;;6290814;28;20036;-56
2023/05/01 12:13:52;;;;;;;11.02;5.43;;;;;;;;;;6291150;28;20048;-54
2023/05/01 12:16:53;;;;;;;15.87;6.17;;;;;;;;;;6289533;28;20048;-56
2023/05/01 12:19:53;;;;;;;13.60;5.00;;;;;;;;;;6291126;28;20044;-57
2023/05/01 12:22:54;;;;;;;13.15;5.95;;;;;;;;;;6290920;28;20052;-54
2023/05/01 12:25:55;;;;;;;14.13;5.75;;;;;;;;;;6289790;28;20641;-54
2023/05/01 12:28:57;;;;;;;11.20;5.37;;;;;;;;;;6290771;28;20051;-57
2023/05/01 12:31:57;;;;;;;16.63;5.95;;;;;;;;;;6291279;28;20052;-54
2023/05/01 12:34:58;;;;;;;18.73;6.03;;;;;;;;;;6290364;28;20479;-53
2023/05/01 12:37:59;;;;;;;12.52;5.38;;;;;;;;;;6289974;28;20056;-57
2023/05/01 12:41:00;;;;;;;10.93;5.00;;;;;;;;;;6290791;28;20033;-55
2023/05/01 12:44:01;;;;;;;;;;;;;;;;;;6290961;28;22067;-54
2023/05/01 12:47:06;;;;;;;14.50;5.90;;;;;;;;;;6289719;28;19920;-54
2023/05/01 12:50:07;;;;;;;14.30;6.38;;;;;;;;;;6290697;28;20044;-55
2023/05/01 12:53:08;;;;;;;20.13;6.40;;;;;;;;;;6290567;28;20044;-57
2023/05/01 12:56:22;;;;;;;13.35;6.68;;;;;;;;;;6289428;28;20052;-56
2023/05/01 12:59:25;;;;;;;46.03;9.40;;;;;;;;;;6290066;28;20044;-56
2023/05/01 13:02:30;;;;;;;11.27;5.43;;;;;;;;;;6290659;28;20043;-56
2023/05/01 13:05:31;;;;;;;14.45;5.45;;;;;;;;;;6294153;28;20472;-58
2023/05/01 13:08:33;;;;;;;22.87;5.90;;;;;;;;;;6293093;28;20040;-53
2023/05/01 13:11:34;;;;;;;16.42;6.38;;;;;;;;;;6295276;28;20043;-60
2023/05/01 13:14:39;;;;;;;16.35;6.03;;;;;;;;;;6295345;28;20062;-58
2023/05/01 13:17:40;;;;;;;16.52;6.38;;;;;;;;;;6294301;28;20056;-56
2023/05/01 13:20:41;;;;;;;17.63;7.20;;;;;;;;;;6295151;28;20043;-54
2023/05/01 13:23:51;;;;;;;17.08;6.60;;;;;;;;;;6295050;28;20479;-62
2023/05/01 13:27:00;;;;;;;19.90;7.53;;;;;;;;;;6294906;28;20105;-56
2023/05/01 13:30:01;;;;;;;30.05;6.78;;;;;;;;;;6293786;28;20419;-57
2023/05/01 13:33:04;;;;;;;17.17;6.20;;;;;;;;;;6295018;28;20483;-56
2023/05/01 13:36:05;;;;;;;16.50;6.85;;;;;;;;;;6294855;28;20475;-62
2023/05/01 13:39:05;;;;;;;15.63;6.78;;;;;;;;;;6293421;28;20403;-56
2023/05/01 13:42:07;;;;;;;16.53;7.07;;;;;;;;;;6294683;28;20053;-58
2023/05/01 13:45:08;;;;;;;;;;;;;;;;;;6294845;28;20041;-52
2023/05/01 13:48:09;;;;;;;21.13;7.88;;;;;;;;;;6293763;28;19920;-63
2023/05/01 13:51:11;;;;;;;25.70;9.75;;;;;;;;;;6293903;28;20453;-54
2023/05/01 13:54:12;;;;;;;;;;;;;;;;;;6294901;28;20110;-55
2023/05/01 13:57:14;;;;;;;13.30;6.17;;;;;;;;;;6294146;28;19927;-57
2023/05/01 14:00:16;;;;;;;;;;;;;;;;;;6293614;28;20484;-57
2023/05/01 14:03:17;;;;;;;17.52;6.15;;;;;;;;;;6294505;28;19924;-55
2023/05/01 14:06:19;;;;;;;17.87;6.40;;;;;;;;;;6293918;28;20064;-55
2023/05/01 14:09:19;;;;;;;21.40;9.80;;;;;;;;;;6292963;28;20049;-56
2023/05/01 14:12:29;;;;;;;19.00;7.50;;;;;;;;;;6293841;28;20045;-54
2023/05/01 14:15:32;;;;;;;15.30;6.65;;;;;;;;;;6293245;28;20044;-53
2023/05/01 14:18:34;;;;;;;21.15;8.90;;;;;;;;;;6293368;28;20044;-61
2023/05/01 14:21:38;;;;;;;;;;;;;;;;;;6293631;28;20047;-59
2023/05/01 14:24:40;;;;;;;22.80;9.05;;;;;;;;;;6293655;28;19939;-57
2023/05/01 14:27:40;;;;;;;21.88;10.05;;;;;;;;;;6293850;28;20068;-56
2023/05/01 14:30:41;;;;;;;16.43;7.63;;;;;;;;;;6292220;28;20044;-55
2023/05/01 14:33:45;;;;;;;25.70;9.60;;;;;;;;;;6293553;28;20056;-55
2023/05/01 14:36:46;;;;;;;19.55;9.20;;;;;;;;;;6293640;28;20041;-60
2023/05/01 14:39:47;;;;;;;13.27;6.93;;;;;;;;;;6292355;28;20041;-54
2023/05/01 14:42:47;;;;;;;17.77;7.30;;;;;;;;;;6293279;28;20033;-57
2023/05/01 14:45:48;;;;;;;17.43;7.33;;;;;;;;;;6293183;28;20053;-58
2023/05/01 14:48:49;;;;;;;15.30;8.00;;;;;;;;;;6292965;28;20049;-66
2023/05/01 14:51:51;;;;;;;91.10;29.13;;;;;;;;;;6292185;28;20143;-56
2023/05/01 14:54:52;;;;;;;34.92;13.90;;;;;;;;;;6293052;28;20560;-56
2023/05/01 14:57:53;;;;;;;19.23;8.13;;;;;;;;;;6292937;28;20045;-57
2023/05/01 15:00:54;;;;;;;17.27;7.23;;;;;;;;;;6291542;28;20339;-56
2023/05/01 15:03:55;;;;;;;20.50;10.95;;;;;;;;;;6292750;28;20050;-57
2023/05/01 15:06:55;;;;;;;53.20;31.90;;;;;;;;;;6292661;28;20057;-56
2023/05/01 15:09:56;;;;;;;79.43;23.07;;;;;;;;;;6291412;28;20121;-56
2023/05/01 15:12:57;;;;;;;37.80;21.83;;;;;;;;;;6292315;28;20049;-56
2023/05/01 15:15:57;;;;;;;66.27;32.63;;;;;;;;;;6292524;28;20048;-57
2023/05/01 15:18:58;;;;;;;25.03;11.10;;;;;;;;;;6291786;28;20388;-56
2023/05/01 15:22:01;;;;;;;41.43;21.90;;;;;;;;;;6291730;28;20083;-57
2023/05/01 15:25:02;;;;;;;32.35;17.52;;;;;;;;;;6292439;28;20051;-55
2023/05/01 15:28:03;;;;;;;24.00;13.00;;;;;;;;;;6291139;28;20044;-58
2023/05/01 15:31:04;;;;;;;20.90;8.57;;;;;;;;;;6290801;28;20047;-57
2023/05/01 15:34:05;;;;;;;19.83;8.98;;;;;;;;;;6291819;28;20447;-56
2023/05/01 15:37:06;;;;;;;40.70;18.77;;;;;;;;;;6292277;28;20081;-56
2023/05/01 15:40:07;;;;;;;17.67;8.27;;;;;;;;;;6290663;28;20037;-61
2023/05/01 15:43:08;;;;;;;28.40;13.30;;;;;;;;;;6291734;28;20098;-59
2023/05/01 15:46:08;;;;;;;21.87;10.33;;;;;;;;;;6291562;28;20495;-58
2023/05/01 15:49:09;;;;;;;17.93;8.10;;;;;;;;;;6291387;28;20033;-57
2023/05/01 15:52:10;;;;;;;17.73;8.60;;;;;;;;;;6290922;28;20097;-56
2023/05/01 15:55:11;;;;;;;18.40;8.50;;;;;;;;;;6291347;28;20040;-56
2023/05/01 15:58:13;;;;;;;17.50;9.40;;;;;;;;;;6291385;28;20048;-56
2023/05/01 16:01:14;;;;;;;22.35;10.25;;;;;;;;;;6290249;28;20098;-60
2023/05/01 16:04:15;;;;;;;23.93;10.60;;;;;;;;;;6291277;28;20040;-56
2023/05/01 16:07:15;;;;;;;41.50;16.43;;;;;;;;;;6291278;28;20617;-58
2023/05/01 16:10:16;;;;;;;22.10;10.17;;;;;;;;;;6289806;28;20051;-57
2023/05/01 16:13:16;;;;;;;55.13;24.40;;;;;;;;;;6290476;28;20037;-58
2023/05/01 16:16:24;;;;;;;64.17;31.60;;;;;;;;;;6291129;28;20445;-57
2023/05/01 16:19:27;;;;;;;45.63;20.35;;;;;;;;;;6290520;28;20088;-57
2023/05/01 16:22:28;;;;;;;16.67;7.75;;;;;;;;;;6290072;28;20055;-54
2023/05/01 16:25:28;;;;;;;19.97;8.00;;;;;;;;;;6290599;28;20056;-60
2023/05/01 16:28:29;;;;;;;21.83;11.53;;;;;;;;;;6290760;28;20048;-57
2023/05/01 16:31:46;;;;;;;32.87;14.70;;;;;;;;;;6289641;28;20032;-58
2023/05/01 16:34:48;;;;;;;31.00;13.90;;;;;;;;;;6290691;28;20456;-56
2023/05/01 16:37:48;;;;;;;;;;;;;;;;;;6291212;28;20045;-56
2023/05/01 16:40:49;;;;;;;17.17;7.28;;;;;;;;;;6289975;28;19924;-57
2023/05/01 16:43:50;;;;;;;19.43;9.00;;;;;;;;;;6290094;28;20431;-60
2023/05/01 16:46:52;;;;;;;27.70;10.95;;;;;;;;;;6290557;28;20036;-55
2023/05/01 16:49:58;;;;;;;28.73;11.35;;;;;;;;;;6290406;28;20056;-56
2023/05/01 16:52:59;;;;;;;21.40;9.43;;;;;;;;;;6289516;28;20042;-59
2023/05/01 16:56:00;;;;;;;29.57;12.13;;;;;;;;;;6290589;28;20041;-57
2023/05/01 16:59:01;;;;;;;26.27;11.07;;;;;;;;;;6290681;28;20048;-57
2023/05/01 17:02:01;;;;;;;24.83;8.97;;;;;;;;;;6289161;28;20040;-58
2023/05/01 17:05:02;;;;;;;25.63;10.37;;;;;;;;;;6290207;28;20056;-57
2023/05/01 17:08:02;;;;;;;21.57;8.83;;;;;;;;;;6290306;28;20049;-59
2023/05/01 17:11:05;;;;;;;23.77;9.00;;;;;;;;;;6289681;28;20411;-56
2023/05/01 17:14:05;;;;;;;21.45;8.23;;;;;;;;;;6289725;28;20047;-63
2023/05/01 17:17:06;;;;;;;21.50;7.97;;;;;;;;;;6290402;28;20131;-55
2023/05/01 17:20:07;;;;;;;23.57;7.67;;;;;;;;;;6290077;28;20049;-56
2023/05/01 17:23:08;;;;;;;16.45;7.10;;;;;;;;;;6289101;28;20054;-55
2023/05/01 17:26:09;;;;;;;19.03;7.30;;;;;;;;;;6290211;28;20504;-57
2023/05/01 17:29:10;;;;;;;21.97;7.63;;;;;;;;;;6289962;28;20032;-56
2023/05/01 17:32:10;;;;;;;18.27;8.40;;;;;;;;;;6289026;28;20045;-58
2023/05/01 17:35:11;;;;;;;33.03;11.00;;;;;;;;;;6289888;28;20040;-57
2023/05/01 17:38:11;;;;;;;31.00;10.83;;;;;;;;;;6290103;28;20041;-58
2023/05/01 17:41:12;;;;;;;21.77;9.67;;;;;;;;;;6289094;28;20040;-58
2023/05/01 17:44:12;;;;;;;23.87;9.27;;;;;;;;;;6289344;28;20055;-59
2023/05/01 17:47:14;;;;;;;23.37;8.80;;;;;;;;;;6290332;28;20050;-54
2023/05/01 17:50:14;;;;;;;20.60;8.40;;;;;;;;;;6291518;28;20052;-68
2023/05/01 17:53:15;;;;;;;23.53;10.27;;;;;;;;;;6293331;28;20051;-55